sensor_id;sensor_type;location;lat;lon;timestamp;pressure;altitude;pressure_sealevel;temperature;humidity
23339;BME280;11841;49.368;20.962;2023-04-21T00:01:33;95882.53;;;8.38;92.81
23339;BME280;11841;49.368;20.962;2023-04-21T00:04:18;95879.91;;;8.38;93.04
23339;BME280;11841;49.368;20.962;2023-04-21T00:07:04;95880.94;;;8.37;92.91
23339;BME280;11841;49.368;20.962;2023-04-21T00:09:49;95883.78;;;8.36;92.96
23339;BME280;11841;49.368;20.962;2023-04-21T00:12:35;95876.66;;;8.36;93.10
23339;BME280;11841;49.368;20.962;2023-04-21T00:15:21;95883.16;;;8.34;92.72
23339;BME280;11841;49.368;20.962;2023-04-21T00:18:06;95878.28;;;8.31;92.68
23339;BME280;11841;49.368;20.962;2023-04-21T00:20:52;95875.84;;;8.29;92.99
23339;BME280;11841;49.368;20.962;2023-04-21T00:23:37;95876.63;;;8.30;92.84
23339;BME280;11841;49.368;20.962;2023-04-21T00:26:23;95872.78;;;8.26;93.17
23339;BME280;11841;49.368;20.962;2023-04-21T00:29:08;95878.06;;;8.26;93.25
23339;BME280;11841;49.368;20.962;2023-04-21T00:31:53;95871.13;;;8.25;92.91
23339;BME280;11841;49.368;20.962;2023-04-21T00:34:38;95874.59;;;8.25;92.95
23339;BME280;11841;49.368;20.962;2023-04-21T00:37:24;95877.44;;;8.24;93.64
23339;BME280;11841;49.368;20.962;2023-04-21T00:40:09;95869.69;;;8.22;93.05
23339;BME280;11841;49.368;20.962;2023-04-21T00:42:55;95870.88;;;8.20;93.37
23339;BME280;11841;49.368;20.962;2023-04-21T00:45:44;95862.16;;;8.19;93.89
23339;BME280;11841;49.368;20.962;2023-04-21T00:48:30;95868.22;;;8.20;93.90
23339;BME280;11841;49.368;20.962;2023-04-21T00:51:15;95862.94;;;8.20;94.15
23339;BME280;11841;49.368;20.962;2023-04-21T00:54:05;95858.69;;;8.19;93.66
23339;BME280;11841;49.368;20.962;2023-04-21T00:56:50;95858.06;;;8.17;94.16
23339;BME280;11841;49.368;20.962;2023-04-21T00:59:36;95858.88;;;8.17;93.84
23339;BME280;11841;49.368;20.962;2023-04-21T01:02:21;95856.06;;;8.19;93.64
23339;BME280;11841;49.368;20.962;2023-04-21T01:05:07;95855.03;;;8.20;94.07
23339;BME280;11841;49.368;20.962;2023-04-21T01:07:53;95851.16;;;8.16;94.40
23339;BME280;11841;49.368;20.962;2023-04-21T01:10:38;95857.66;;;8.20;93.62
23339;BME280;11841;49.368;20.962;2023-04-21T01:13:23;95862.16;;;8.19;93.93
23339;BME280;11841;49.368;20.962;2023-04-21T01:16:15;95850.16;;;8.17;93.22
23339;BME280;11841;49.368;20.962;2023-04-21T01:19:01;95842.00;;;8.12;93.29
23339;BME280;11841;49.368;20.962;2023-04-21T01:21:49;95851.94;;;8.10;93.65
23339;BME280;11841;49.368;20.962;2023-04-21T01:24:47;95846.66;;;8.10;93.04
23339;BME280;11841;49.368;20.962;2023-04-21T01:27:33;95846.03;;;8.08;93.22
23339;BME280;11841;49.368;20.962;2023-04-21T01:30:18;95844.63;;;8.05;92.98
23339;BME280;11841;49.368;20.962;2023-04-21T01:33:03;95849.47;;;8.02;92.44
23339;BME280;11841;49.368;20.962;2023-04-21T01:35:49;95846.22;;;8.00;92.83
23339;BME280;11841;49.368;20.962;2023-04-21T01:38:41;95849.25;;;7.97;92.39
23339;BME280;11841;49.368;20.962;2023-04-21T01:41:26;95842.53;;;7.94;92.50
23339;BME280;11841;49.368;20.962;2023-04-21T01:44:12;95835.84;;;7.92;92.56
23339;BME280;11841;49.368;20.962;2023-04-21T01:46:57;95845.56;;;7.91;92.56
23339;BME280;11841;49.368;20.962;2023-04-21T01:49:43;95837.66;;;7.91;93.27
23339;BME280;11841;49.368;20.962;2023-04-21T01:52:28;95834.41;;;7.89;92.63
23339;BME280;11841;49.368;20.962;2023-04-21T01:55:13;95830.34;;;7.87;92.49
23339;BME280;11841;49.368;20.962;2023-04-21T01:57:59;95834.78;;;7.86;93.29
23339;BME280;11841;49.368;20.962;2023-04-21T02:00:45;95820.34;;;7.82;93.01
23339;BME280;11841;49.368;20.962;2023-04-21T02:03:30;95828.28;;;7.82;92.74
23339;BME280;11841;49.368;20.962;2023-04-21T02:06:15;95831.72;;;7.83;92.80
23339;BME280;11841;49.368;20.962;2023-04-21T02:09:01;95829.50;;;7.80;92.82
23339;BME280;11841;49.368;20.962;2023-04-21T02:11:47;95841.25;;;7.77;92.90
23339;BME280;11841;49.368;20.962;2023-04-21T02:14:32;95833.72;;;7.74;92.38
23339;BME280;11841;49.368;20.962;2023-04-21T02:17:17;95837.16;;;7.68;92.07
23339;BME280;11841;49.368;20.962;2023-04-21T02:20:05;95833.47;;;7.63;91.45
23339;BME280;11841;49.368;20.962;2023-04-21T02:22:50;95837.50;;;7.59;91.60
23339;BME280;11841;49.368;20.962;2023-04-21T02:25:36;95845.81;;;7.56;91.47
23339;BME280;11841;49.368;20.962;2023-04-21T02:28:21;95839.91;;;7.54;91.14
23339;BME280;11841;49.368;20.962;2023-04-21T02:31:06;95834.59;;;7.47;91.08
23339;BME280;11841;49.368;20.962;2023-04-21T02:33:52;95839.44;;;7.44;90.91
23339;BME280;11841;49.368;20.962;2023-04-21T02:36:38;95835.38;;;7.41;90.61
23339;BME280;11841;49.368;20.962;2023-04-21T02:39:24;95836.97;;;7.35;90.83
23339;BME280;11841;49.368;20.962;2023-04-21T02:42:09;95833.47;;;7.28;90.95
23339;BME280;11841;49.368;20.962;2023-04-21T02:44:54;95840.16;;;7.24;90.11
23339;BME280;11841;49.368;20.962;2023-04-21T02:47:40;95835.63;;;7.18;90.23
23339;BME280;11841;49.368;20.962;2023-04-21T02:50:25;95844.31;;;7.12;90.08
23339;BME280;11841;49.368;20.962;2023-04-21T02:53:10;95840.63;;;7.07;89.79
23339;BME280;11841;49.368;20.962;2023-04-21T02:55:56;95839.56;;;7.01;89.73
23339;BME280;11841;49.368;20.962;2023-04-21T02:58:41;95839.97;;;6.98;90.04
23339;BME280;11841;49.368;20.962;2023-04-21T03:01:26;95841.34;;;6.94;89.53
23339;BME280;11841;49.368;20.962;2023-04-21T03:04:12;95835.03;;;6.89;89.55
23339;BME280;11841;49.368;20.962;2023-04-21T03:06:57;95838.22;;;6.84;90.06
23339;BME280;11841;49.368;20.962;2023-04-21T03:09:42;95839.63;;;6.80;90.23
23339;BME280;11841;49.368;20.962;2023-04-21T03:12:27;95838.16;;;6.78;90.23
23339;BME280;11841;49.368;20.962;2023-04-21T03:15:13;95842.81;;;6.76;90.11
23339;BME280;11841;49.368;20.962;2023-04-21T03:17:58;95830.44;;;6.76;90.18
23339;BME280;11841;49.368;20.962;2023-04-21T03:20:43;95842.16;;;6.74;90.44
23339;BME280;11841;49.368;20.962;2023-04-21T03:23:28;95840.13;;;6.69;90.86
23339;BME280;11841;49.368;20.962;2023-04-21T03:26:14;95840.50;;;6.66;91.00
23339;BME280;11841;49.368;20.962;2023-04-21T03:28:59;95842.50;;;6.64;90.92
23339;BME280;11841;49.368;20.962;2023-04-21T03:31:44;95846.16;;;6.63;91.14
23339;BME280;11841;49.368;20.962;2023-04-21T03:34:30;95835.63;;;6.63;91.58
23339;BME280;11841;49.368;20.962;2023-04-21T03:37:15;95842.50;;;6.64;91.40
23339;BME280;11841;49.368;20.962;2023-04-21T03:40:00;95843.53;;;6.63;91.08
23339;BME280;11841;49.368;20.962;2023-04-21T03:42:46;95838.44;;;6.62;91.17
23339;BME280;11841;49.368;20.962;2023-04-21T03:45:34;95844.88;;;6.59;91.24
23339;BME280;11841;49.368;20.962;2023-04-21T03:48:19;95838.16;;;6.57;91.90
23339;BME280;11841;49.368;20.962;2023-04-21T03:51:04;95837.38;;;6.56;91.76
23339;BME280;11841;49.368;20.962;2023-04-21T03:53:50;95842.44;;;6.58;91.87
23339;BME280;11841;49.368;20.962;2023-04-21T03:56:35;95844.88;;;6.59;91.76
23339;BME280;11841;49.368;20.962;2023-04-21T03:59:20;95847.72;;;6.58;92.41
23339;BME280;11841;49.368;20.962;2023-04-21T04:02:06;95847.72;;;6.58;92.49
23339;BME280;11841;49.368;20.962;2023-04-21T04:04:51;95852.16;;;6.57;92.56
23339;BME280;11841;49.368;20.962;2023-04-21T04:07:36;95848.53;;;6.58;92.70
23339;BME280;11841;49.368;20.962;2023-04-21T04:10:22;95846.50;;;6.60;92.61
23339;BME280;11841;49.368;20.962;2023-04-21T04:13:07;95851.78;;;6.60;92.95
23339;BME280;11841;49.368;20.962;2023-04-21T04:15:52;95859.53;;;6.62;93.12
23339;BME280;11841;49.368;20.962;2023-04-21T04:18:38;95845.78;;;6.66;93.58
23339;BME280;11841;49.368;20.962;2023-04-21T04:21:23;95860.38;;;6.69;93.55
23339;BME280;11841;49.368;20.962;2023-04-21T04:24:09;95855.72;;;6.71;93.50
23339;BME280;11841;49.368;20.962;2023-04-21T04:26:55;95860.81;;;6.72;93.46
23339;BME280;11841;49.368;20.962;2023-04-21T04:29:42;95863.25;;;6.74;93.66
23339;BME280;11841;49.368;20.962;2023-04-21T04:32:28;95855.19;;;6.75;93.90
23339;BME280;11841;49.368;20.962;2023-04-21T04:35:13;95853.53;;;6.74;94.12
23339;BME280;11841;49.368;20.962;2023-04-21T04:38:00;95862.03;;;6.70;94.96
23339;BME280;11841;49.368;20.962;2023-04-21T04:40:52;95865.72;;;6.75;95.17
23339;BME280;11841;49.368;20.962;2023-04-21T04:43:38;95865.72;;;6.75;95.12
23339;BME280;11841;49.368;20.962;2023-04-21T04:46:23;95869.34;;;6.74;95.40
23339;BME280;11841;49.368;20.962;2023-04-21T04:49:08;95864.31;;;6.79;95.49
23339;BME280;11841;49.368;20.962;2023-04-21T04:51:54;95871.47;;;6.85;95.88
23339;BME280;11841;49.368;20.962;2023-04-21T04:54:39;95866.25;;;6.92;95.69
23339;BME280;11841;49.368;20.962;2023-04-21T04:57:24;95869.09;;;6.90;95.85
23339;BME280;11841;49.368;20.962;2023-04-21T05:00:10;95869.44;;;6.87;96.30
23339;BME280;11841;49.368;20.962;2023-04-21T05:02:55;95870.47;;;6.86;96.04
23339;BME280;11841;49.368;20.962;2023-04-21T05:05:41;95865.81;;;6.88;96.77
23339;BME280;11841;49.368;20.962;2023-04-21T05:08:26;95864.06;;;6.95;96.83
23339;BME280;11841;49.368;20.962;2023-04-21T05:11:11;95866.31;;;6.98;96.41
23339;BME280;11841;49.368;20.962;2023-04-21T05:13:57;95865.19;;;7.07;96.71
23339;BME280;11841;49.368;20.962;2023-04-21T05:16:42;95861.53;;;7.08;96.73
23339;BME280;11841;49.368;20.962;2023-04-21T05:19:28;95863.09;;;7.03;97.26
23339;BME280;11841;49.368;20.962;2023-04-21T05:22:13;95861.88;;;6.99;97.43
23339;BME280;11841;49.368;20.962;2023-04-21T05:24:58;95866.91;;;6.94;98.08
23339;BME280;11841;49.368;20.962;2023-04-21T05:27:43;95859.41;;;6.97;98.36
23339;BME280;11841;49.368;20.962;2023-04-21T05:30:29;95860.06;;;7.06;98.78
23339;BME280;11841;49.368;20.962;2023-04-21T05:33:17;95860.16;;;7.12;97.84
23339;BME280;11841;49.368;20.962;2023-04-21T05:36:06;95860.34;;;7.11;98.62
23339;BME280;11841;49.368;20.962;2023-04-21T05:38:53;95856.06;;;7.10;98.24
23339;BME280;11841;49.368;20.962;2023-04-21T05:41:38;95858.50;;;7.11;98.18
23339;BME280;11841;49.368;20.962;2023-04-21T05:44:24;95867.66;;;7.15;98.57
23339;BME280;11841;49.368;20.962;2023-04-21T05:47:09;95859.81;;;7.22;98.40
23339;BME280;11841;49.368;20.962;2023-04-21T05:49:55;95866.13;;;7.27;97.53
23339;BME280;11841;49.368;20.962;2023-04-21T05:52:40;95858.47;;;7.32;97.63
23339;BME280;11841;49.368;20.962;2023-04-21T05:55:25;95864.97;;;7.36;97.76
23339;BME280;11841;49.368;20.962;2023-04-21T05:58:10;95867.47;;;7.45;97.93
23339;BME280;11841;49.368;20.962;2023-04-21T06:00:56;95859.78;;;7.50;97.46
23339;BME280;11841;49.368;20.962;2023-04-21T06:03:41;95852.34;;;7.60;96.88
23339;BME280;11841;49.368;20.962;2023-04-21T06:06:26;95862.53;;;7.69;97.21
23339;BME280;11841;49.368;20.962;2023-04-21T06:09:12;95865.00;;;7.77;96.77
23339;BME280;11841;49.368;20.962;2023-04-21T06:11:59;95859.16;;;7.82;97.89
23339;BME280;11841;49.368;20.962;2023-04-21T06:14:45;95861.81;;;7.88;97.60
23339;BME280;11841;49.368;20.962;2023-04-21T06:17:31;95864.47;;;7.95;97.12
23339;BME280;11841;49.368;20.962;2023-04-21T06:20:16;95852.13;;;8.02;97.38
23339;BME280;11841;49.368;20.962;2023-04-21T06:23:01;95860.88;;;8.09;97.68
23339;BME280;11841;49.368;20.962;2023-04-21T06:26:01;95857.66;;;8.13;98.91
23339;BME280;11841;49.368;20.962;2023-04-21T06:28:49;95859.31;;;8.21;98.73
23339;BME280;11841;49.368;20.962;2023-04-21T06:31:34;95856.13;;;8.32;98.95
23339;BME280;11841;49.368;20.962;2023-04-21T06:34:19;95844.38;;;8.41;98.13
23339;BME280;11841;49.368;20.962;2023-04-21T06:37:05;95836.25;;;8.49;98.15
23339;BME280;11841;49.368;20.962;2023-04-21T06:39:51;95841.16;;;8.59;98.04
23339;BME280;11841;49.368;20.962;2023-04-21T06:42:36;95833.81;;;8.67;97.94
23339;BME280;11841;49.368;20.962;2023-04-21T06:45:21;95838.72;;;8.83;97.99
23339;BME280;11841;49.368;20.962;2023-04-21T06:48:07;95836.28;;;8.95;97.13
23339;BME280;11841;49.368;20.962;2023-04-21T06:50:52;95826.72;;;9.07;97.22
23339;BME280;11841;49.368;20.962;2023-04-21T06:53:38;95835.47;;;9.20;95.55
23339;BME280;11841;49.368;20.962;2023-04-21T06:56:28;95832.63;;;9.35;93.14
23339;BME280;11841;49.368;20.962;2023-04-21T06:59:13;95831.13;;;9.58;88.62
23339;BME280;11841;49.368;20.962;2023-04-21T07:01:59;95827.03;;;9.75;86.78
23339;BME280;11841;49.368;20.962;2023-04-21T07:04:45;95827.94;;;10.01;83.48
23339;BME280;11841;49.368;20.962;2023-04-21T07:07:30;95830.31;;;10.22;81.48
23339;BME280;11841;49.368;20.962;2023-04-21T07:10:15;95832.22;;;10.46;79.23
23339;BME280;11841;49.368;20.962;2023-04-21T07:13:03;95837.88;;;10.56;76.69
23339;BME280;11841;49.368;20.962;2023-04-21T07:15:49;95838.16;;;10.79;73.13
23339;BME280;11841;49.368;20.962;2023-04-21T07:18:34;95837.00;;;10.93;73.28
23339;BME280;11841;49.368;20.962;2023-04-21T07:21:19;95837.50;;;11.08;71.78
23339;BME280;11841;49.368;20.962;2023-04-21T07:24:05;95841.22;;;11.25;65.33
23339;BME280;11841;49.368;20.962;2023-04-21T07:26:50;95838.84;;;11.42;64.96
23339;BME280;11841;49.368;20.962;2023-04-21T07:29:35;95844.41;;;11.58;63.30
23339;BME280;11841;49.368;20.962;2023-04-21T07:32:21;95843.56;;;11.64;60.79
23339;BME280;11841;49.368;20.962;2023-04-21T07:35:07;95821.22;;;11.72;60.77
23339;BME280;11841;49.368;20.962;2023-04-21T07:37:52;95824.25;;;11.75;62.69
23339;BME280;11841;49.368;20.962;2023-04-21T07:40:37;95820.41;;;11.89;63.65
23339;BME280;11841;49.368;20.962;2023-04-21T07:43:22;95821.56;;;11.93;62.71
23339;BME280;11841;49.368;20.962;2023-04-21T07:46:09;95828.38;;;12.07;61.72
23339;BME280;11841;49.368;20.962;2023-04-21T07:48:58;95813.44;;;12.06;60.70
23339;BME280;11841;49.368;20.962;2023-04-21T07:51:47;95819.06;;;12.17;58.53
23339;BME280;11841;49.368;20.962;2023-04-21T07:54:33;95818.16;;;12.23;58.77
23339;BME280;11841;49.368;20.962;2023-04-21T07:57:18;95820.72;;;12.29;58.21
23339;BME280;11841;49.368;20.962;2023-04-21T08:00:05;95812.06;;;12.34;57.74
23339;BME280;11841;49.368;20.962;2023-04-21T08:02:50;95827.59;;;12.37;58.73
23339;BME280;11841;49.368;20.962;2023-04-21T08:05:35;95824.03;;;12.43;58.31
23339;BME280;11841;49.368;20.962;2023-04-21T08:08:25;95826.22;;;12.46;57.68
23339;BME280;11841;49.368;20.962;2023-04-21T08:11:10;95822.09;;;12.50;57.51
23339;BME280;11841;49.368;20.962;2023-04-21T08:13:56;95815.72;;;12.51;57.15
23339;BME280;11841;49.368;20.962;2023-04-21T08:16:42;95813.31;;;12.61;58.26
23339;BME280;11841;49.368;20.962;2023-04-21T08:19:27;95817.75;;;12.67;56.65
23339;BME280;11841;49.368;20.962;2023-04-21T08:22:12;95810.97;;;12.71;56.40
23339;BME280;11841;49.368;20.962;2023-04-21T08:24:58;95806.19;;;12.73;57.24
23339;BME280;11841;49.368;20.962;2023-04-21T08:27:43;95810.63;;;12.79;56.81
23339;BME280;11841;49.368;20.962;2023-04-21T08:30:29;95799.78;;;12.92;55.31
23339;BME280;11841;49.368;20.962;2023-04-21T08:33:14;95798.22;;;13.02;54.57
23339;BME280;11841;49.368;20.962;2023-04-21T08:35:59;95793.59;;;13.09;54.86
23339;BME280;11841;49.368;20.962;2023-04-21T08:38:54;95793.59;;;13.21;54.95
23339;BME280;11841;49.368;20.962;2023-04-21T08:41:39;95802.03;;;13.41;51.41
23339;BME280;11841;49.368;20.962;2023-04-21T08:44:25;95801.81;;;13.43;46.64
23339;BME280;11841;49.368;20.962;2023-04-21T08:47:12;95798.47;;;13.47;47.74
23339;BME280;11841;49.368;20.962;2023-04-21T08:49:58;95793.94;;;13.48;48.31
23339;BME280;11841;49.368;20.962;2023-04-21T08:52:43;95791.16;;;13.54;48.47
23339;BME280;11841;49.368;20.962;2023-04-21T08:55:30;95788.03;;;13.57;46.49
23339;BME280;11841;49.368;20.962;2023-04-21T08:58:16;95794.50;;;13.61;47.98
23339;BME280;11841;49.368;20.962;2023-04-21T09:01:01;95783.72;;;13.68;48.79
23339;BME280;11841;49.368;20.962;2023-04-21T09:03:47;95792.41;;;13.63;47.97
23339;BME280;11841;49.368;20.962;2023-04-21T09:06:39;95778.97;;;13.70;49.63
23339;BME280;11841;49.368;20.962;2023-04-21T09:09:28;95786.72;;;13.71;48.92
23339;BME280;11841;49.368;20.962;2023-04-21T09:12:13;95776.53;;;13.68;48.40
23339;BME280;11841;49.368;20.962;2023-04-21T09:15:03;95789.03;;;13.68;49.96
23339;BME280;11841;49.368;20.962;2023-04-21T09:17:54;95779.56;;;13.72;49.21
23339;BME280;11841;49.368;20.962;2023-04-21T09:20:40;95774.69;;;13.69;48.67
23339;BME280;11841;49.368;20.962;2023-04-21T09:23:25;95775.50;;;13.58;46.33
23339;BME280;11841;49.368;20.962;2023-04-21T09:26:11;95786.75;;;13.60;48.21
23339;BME280;11841;49.368;20.962;2023-04-21T09:28:57;95775.75;;;13.56;47.12
23339;BME280;11841;49.368;20.962;2023-04-21T09:31:45;95774.97;;;13.56;48.41
23339;BME280;11841;49.368;20.962;2023-04-21T09:34:30;95769.28;;;13.52;47.93
23339;BME280;11841;49.368;20.962;2023-04-21T09:37:18;95768.91;;;13.60;48.02
23339;BME280;11841;49.368;20.962;2023-04-21T09:40:12;95758.25;;;13.60;48.92
23339;BME280;11841;49.368;20.962;2023-04-21T09:42:58;95767.28;;;13.71;50.33
23339;BME280;11841;49.368;20.962;2023-04-21T09:45:44;95765.53;;;13.76;50.63
23339;BME280;11841;49.368;20.962;2023-04-21T09:48:31;95768.28;;;13.81;50.06
23339;BME280;11841;49.368;20.962;2023-04-21T09:51:19;95777.09;;;13.82;48.88
23339;BME280;11841;49.368;20.962;2023-04-21T09:54:31;95764.25;;;13.79;47.90
23339;BME280;11841;49.368;20.962;2023-04-21T09:57:24;95762.16;;;13.81;48.74
23339;BME280;11841;49.368;20.962;2023-04-21T10:00:10;95765.06;;;13.79;47.49
23339;BME280;11841;49.368;20.962;2023-04-21T10:02:57;95762.84;;;13.76;46.07
23339;BME280;11841;49.368;20.962;2023-04-21T10:05:45;95757.19;;;13.84;46.49
23339;BME280;11841;49.368;20.962;2023-04-21T10:08:30;95751.84;;;13.84;46.28
23339;BME280;11841;49.368;20.962;2023-04-21T10:11:16;95746.53;;;13.84;47.56
23339;BME280;11841;49.368;20.962;2023-04-21T10:14:03;95757.88;;;13.91;48.27
23339;BME280;11841;49.368;20.962;2023-04-21T10:16:55;95745.19;;;13.98;48.29
23339;BME280;11841;49.368;20.962;2023-04-21T10:19:50;95745.19;;;13.98;46.87
23339;BME280;11841;49.368;20.962;2023-04-21T10:22:35;95749.72;;;13.98;47.95
23339;BME280;11841;49.368;20.962;2023-04-21T10:25:22;95748.38;;;14.12;49.47
23339;BME280;11841;49.368;20.962;2023-04-21T10:28:17;95727.94;;;14.29;48.39
23339;BME280;11841;49.368;20.962;2023-04-21T10:31:21;95740.75;;;14.43;45.04
23339;BME280;11841;49.368;20.962;2023-04-21T10:39:50;95755.31;;;14.24;44.27
23339;BME280;11841;49.368;20.962;2023-04-21T10:42:36;95765.78;;;14.14;44.83
23339;BME280;11841;49.368;20.962;2023-04-21T10:45:24;95755.59;;;14.11;45.44
23339;BME280;11841;49.368;20.962;2023-04-21T10:48:13;95753.41;;;14.08;44.14
23339;BME280;11841;49.368;20.962;2023-04-21T10:50:58;95741.69;;;14.09;44.37
23339;BME280;11841;49.368;20.962;2023-04-21T10:53:44;95745.97;;;14.10;44.59
23339;BME280;11841;49.368;20.962;2023-04-21T10:56:29;95749.34;;;14.06;43.53
23339;BME280;11841;49.368;20.962;2023-04-21T10:59:17;95736.75;;;14.01;44.03
23339;BME280;11841;49.368;20.962;2023-04-21T11:02:07;95724.19;;;14.02;45.01
23339;BME280;11841;49.368;20.962;2023-04-21T11:04:55;95727.78;;;14.07;45.90
23339;BME280;11841;49.368;20.962;2023-04-21T11:07:40;95722.88;;;14.16;45.02
23339;BME280;11841;49.368;20.962;2023-04-21T11:10:26;95722.16;;;14.20;43.94
23339;BME280;11841;49.368;20.962;2023-04-21T11:13:11;95720.19;;;14.27;43.92
23339;BME280;11841;49.368;20.962;2023-04-21T11:16:02;95721.03;;;14.44;42.31
23339;BME280;11841;49.368;20.962;2023-04-21T11:18:48;95720.00;;;14.45;42.79
23339;BME280;11841;49.368;20.962;2023-04-21T11:21:33;95737.53;;;14.41;41.33
23339;BME280;11841;49.368;20.962;2023-04-21T11:24:21;95711.81;;;14.35;42.77
23339;BME280;11841;49.368;20.962;2023-04-21T11:27:07;95728.53;;;14.31;42.05
23339;BME280;11841;49.368;20.962;2023-04-21T11:29:52;95741.53;;;14.27;42.19
23339;BME280;11841;49.368;20.962;2023-04-21T11:32:37;95739.22;;;14.19;41.50
23339;BME280;11841;49.368;20.962;2023-04-21T11:35:23;95728.34;;;14.09;42.25
23339;BME280;11841;49.368;20.962;2023-04-21T11:38:08;95732.09;;;14.08;42.96
23339;BME280;11841;49.368;20.962;2023-04-21T11:40:54;95718.50;;;14.10;44.10
23339;BME280;11841;49.368;20.962;2023-04-21T11:43:39;95720.56;;;14.19;45.29
23339;BME280;11841;49.368;20.962;2023-04-21T11:46:25;95717.38;;;14.34;46.17
23339;BME280;11841;49.368;20.962;2023-04-21T11:49:13;95710.69;;;14.65;44.80
23339;BME280;11841;49.368;20.962;2023-04-21T11:51:58;95708.78;;;14.77;43.35
23339;BME280;11841;49.368;20.962;2023-04-21T11:54:44;95708.47;;;14.90;43.54
23339;BME280;11841;49.368;20.962;2023-04-21T11:57:31;95709.41;;;15.00;42.72
23339;BME280;11841;49.368;20.962;2023-04-21T12:00:16;95713.22;;;15.04;41.15
23339;BME280;11841;49.368;20.962;2023-04-21T12:03:02;95706.81;;;15.05;40.86
23339;BME280;11841;49.368;20.962;2023-04-21T12:05:55;95699.06;;;15.04;41.73
23339;BME280;11841;49.368;20.962;2023-04-21T12:08:42;95704.41;;;15.20;41.61
23339;BME280;11841;49.368;20.962;2023-04-21T12:11:29;95691.41;;;15.29;42.56
23339;BME280;11841;49.368;20.962;2023-04-21T12:14:17;95690.34;;;15.46;41.37
23339;BME280;11841;49.368;20.962;2023-04-21T12:17:05;95699.69;;;15.44;40.61
23339;BME280;11841;49.368;20.962;2023-04-21T12:19:50;95682.41;;;15.35;39.64
23339;BME280;11841;49.368;20.962;2023-04-21T12:22:36;95689.47;;;15.41;41.46
23339;BME280;11841;49.368;20.962;2023-04-21T12:25:21;95689.59;;;15.51;40.79
23339;BME280;11841;49.368;20.962;2023-04-21T12:28:07;95685.50;;;15.65;41.79
23339;BME280;11841;49.368;20.962;2023-04-21T12:30:53;95691.38;;;15.62;40.69
23339;BME280;11841;49.368;20.962;2023-04-21T12:33:38;95685.03;;;15.30;40.84
23339;BME280;11841;49.368;20.962;2023-04-21T12:36:24;95688.13;;;15.22;41.17
23339;BME280;11841;49.368;20.962;2023-04-21T12:39:12;95692.19;;;15.08;39.92
23339;BME280;11841;49.368;20.962;2023-04-21T12:41:57;95688.72;;;14.91;39.08
23339;BME280;11841;49.368;20.962;2023-04-21T12:44:42;95685.63;;;14.99;39.21
23339;BME280;11841;49.368;20.962;2023-04-21T12:47:28;95672.34;;;15.04;38.86
23339;BME280;11841;49.368;20.962;2023-04-21T12:50:14;95671.28;;;15.21;39.90
23339;BME280;11841;49.368;20.962;2023-04-21T12:53:00;95677.25;;;15.28;39.32
23339;BME280;11841;49.368;20.962;2023-04-21T12:55:45;95677.09;;;15.35;39.01
23339;BME280;11841;49.368;20.962;2023-04-21T12:58:47;95657.31;;;15.36;39.41
23339;BME280;11841;49.368;20.962;2023-04-21T13:01:33;95655.00;;;15.39;39.19
23339;BME280;11841;49.368;20.962;2023-04-21T13:04:18;95651.41;;;15.50;39.87
23339;BME280;11841;49.368;20.962;2023-04-21T13:07:03;95661.00;;;15.73;41.28
23339;BME280;11841;49.368;20.962;2023-04-21T13:09:49;95656.78;;;15.77;38.22
23339;BME280;11841;49.368;20.962;2023-04-21T13:12:35;95660.78;;;15.53;38.35
23339;BME280;11841;49.368;20.962;2023-04-21T13:15:20;95656.03;;;15.38;39.78
23339;BME280;11841;49.368;20.962;2023-04-21T13:18:05;95654.31;;;15.32;39.21
23339;BME280;11841;49.368;20.962;2023-04-21T13:20:51;95650.81;;;15.27;40.29
23339;BME280;11841;49.368;20.962;2023-04-21T13:23:36;95663.88;;;15.45;40.72
23339;BME280;11841;49.368;20.962;2023-04-21T13:26:21;95647.00;;;15.61;39.88
23339;BME280;11841;49.368;20.962;2023-04-21T13:29:07;95640.28;;;15.58;39.89
23339;BME280;11841;49.368;20.962;2023-04-21T13:31:52;95642.06;;;15.53;40.11
23339;BME280;11841;49.368;20.962;2023-04-21T13:34:38;95641.38;;;15.41;39.15
23339;BME280;11841;49.368;20.962;2023-04-21T13:37:23;95649.81;;;15.33;40.49
23339;BME280;11841;49.368;20.962;2023-04-21T13:40:09;95650.31;;;15.30;39.50
23339;BME280;11841;49.368;20.962;2023-04-21T13:42:55;95643.31;;;15.29;39.47
23339;BME280;11841;49.368;20.962;2023-04-21T13:45:42;95648.50;;;15.35;39.61
23339;BME280;11841;49.368;20.962;2023-04-21T13:48:27;95632.13;;;15.48;40.32
23339;BME280;11841;49.368;20.962;2023-04-21T13:51:13;95626.22;;;15.68;40.38
23339;BME280;11841;49.368;20.962;2023-04-21T13:53:59;95616.25;;;15.85;41.17
23339;BME280;11841;49.368;20.962;2023-04-21T13:56:44;95642.00;;;15.91;39.29
23339;BME280;11841;49.368;20.962;2023-04-21T13:59:29;95624.31;;;15.90;39.67
23339;BME280;11841;49.368;20.962;2023-04-21T14:02:16;95623.53;;;15.90;39.53
23339;BME280;11841;49.368;20.962;2023-04-21T14:05:02;95626.41;;;15.61;38.60
23339;BME280;11841;49.368;20.962;2023-04-21T14:07:48;95633.38;;;15.41;39.79
23339;BME280;11841;49.368;20.962;2023-04-21T14:10:33;95639.81;;;15.23;40.04
23339;BME280;11841;49.368;20.962;2023-04-21T14:13:18;95626.19;;;15.25;40.27
23339;BME280;11841;49.368;20.962;2023-04-21T14:16:21;95632.50;;;15.19;40.29
23339;BME280;11841;49.368;20.962;2023-04-21T14:19:07;95630.59;;;15.14;40.40
23339;BME280;11841;49.368;20.962;2023-04-21T14:21:52;95620.53;;;15.21;40.75
23339;BME280;11841;49.368;20.962;2023-04-21T14:24:38;95603.34;;;15.34;40.79
23339;BME280;11841;49.368;20.962;2023-04-21T14:27:24;95611.59;;;15.49;39.40
23339;BME280;11841;49.368;20.962;2023-04-21T14:30:10;95601.56;;;15.61;40.16
23339;BME280;11841;49.368;20.962;2023-04-21T14:32:55;95610.47;;;15.71;39.43
23339;BME280;11841;49.368;20.962;2023-04-21T14:35:41;95612.97;;;15.78;39.69
23339;BME280;11841;49.368;20.962;2023-04-21T14:38:26;95606.56;;;15.79;38.89
23339;BME280;11841;49.368;20.962;2023-04-21T14:41:13;95597.44;;;15.75;39.14